createdAt,value
2017-12-30T00:01:40.470Z,601.63
2017-12-30T00:04:07.917Z,657.57
2017-12-30T00:06:36.126Z,598.97
2017-12-30T00:09:03.581Z,618.70
2017-12-30T00:11:31.026Z,601.20
2017-12-30T00:13:58.489Z,632.17
2017-12-30T00:16:25.930Z,646.50
2017-12-30T00:18:53.381Z,573.13
2017-12-30T00:21:21.590Z,563.10
2017-12-30T00:23:49.035Z,566.77
2017-12-30T00:26:16.474Z,519.10
2017-12-30T00:28:43.926Z,540.00
2017-12-30T00:31:12.138Z,576.00
2017-12-30T00:33:39.588Z,556.17
2017-12-30T00:36:07.034Z,646.90
2017-12-30T00:38:34.481Z,637.10
2017-12-30T00:41:01.928Z,636.63
2017-12-30T00:43:30.146Z,660.57
2017-12-30T00:45:57.589Z,664.83
2017-12-30T00:48:25.043Z,646.17
2017-12-30T00:50:52.481Z,653.60
2017-12-30T00:53:19.938Z,655.53
2017-12-30T00:55:47.379Z,651.53
2017-12-30T00:58:15.613Z,655.23
2017-12-30T01:00:43.058Z,660.67
2017-12-30T01:03:10.513Z,656.63
2017-12-30T01:05:37.954Z,644.47
2017-12-30T01:08:05.426Z,639.53
2017-12-30T01:10:32.871Z,636.10
2017-12-30T01:13:00.332Z,640.27
2017-12-30T01:15:27.770Z,635.00
2017-12-30T01:17:55.218Z,617.67
2017-12-30T01:20:23.455Z,647.43
2017-12-30T01:22:50.901Z,648.60
2017-12-30T01:25:18.358Z,652.27
2017-12-30T01:27:45.806Z,607.93
2017-12-30T01:30:13.255Z,650.20
2017-12-30T01:32:40.694Z,623.20
2017-12-30T01:35:08.141Z,630.10
2017-12-30T01:37:35.584Z,622.67
2017-12-30T01:40:03.817Z,644.10
2017-12-30T01:42:31.266Z,646.40
2017-12-30T01:44:58.725Z,647.43
2017-12-30T01:47:26.170Z,625.03
2017-12-30T01:49:53.619Z,607.63
2017-12-30T01:52:21.061Z,649.87
2017-12-30T01:54:48.518Z,642.30
2017-12-30T01:57:16.715Z,609.53
2017-12-30T01:59:44.159Z,609.80
2017-12-30T02:02:11.597Z,618.90
2017-12-30T02:04:39.814Z,611.43
2017-12-30T02:07:07.262Z,651.87
2017-12-30T02:09:34.706Z,639.93
2017-12-30T02:12:02.154Z,659.60
2017-12-30T02:14:29.605Z,652.37
2017-12-30T02:16:57.066Z,371.37
2017-12-30T02:19:24.510Z,594.20
2017-12-30T02:21:52.726Z,533.97
2017-12-30T02:24:20.937Z,483.20
2017-12-30T02:26:48.378Z,393.57
2017-12-30T02:29:15.828Z,373.47
2017-12-30T02:31:43.266Z,361.03
2017-12-30T02:34:10.709Z,157.80
2017-12-30T02:36:38.155Z,126.63
2017-12-30T02:39:05.599Z,73.57
2017-12-30T02:41:33.807Z,9.53
2017-12-30T02:44:01.253Z,136.87
2017-12-30T02:46:28.706Z,272.53
2017-12-30T02:48:56.152Z,226.67
2017-12-30T02:51:24.370Z,182.73
2017-12-30T02:53:51.817Z,260.07
2017-12-30T02:56:19.266Z,466.63
2017-12-30T02:58:46.718Z,407.43
2017-12-30T03:01:14.160Z,311.80
2017-12-30T03:03:41.614Z,493.23
2017-12-30T03:06:09.058Z,567.77
2017-12-30T03:08:37.286Z,575.73
2017-12-30T03:11:04.733Z,505.47
2017-12-30T03:13:32.969Z,509.80
2017-12-30T03:16:01.174Z,585.00
2017-12-30T03:18:28.621Z,497.07
2017-12-30T03:20:56.065Z,508.90
2017-12-30T03:23:23.518Z,576.47
2017-12-30T03:25:51.717Z,597.53
2017-12-30T03:28:19.166Z,628.30
2017-12-30T03:30:46.614Z,613.67
2017-12-30T03:33:14.062Z,639.07
2017-12-30T03:35:42.366Z,497.13
2017-12-30T03:38:09.810Z,507.97
2017-12-30T03:40:37.270Z,532.73
2017-12-30T03:43:04.706Z,77.83
2017-12-30T03:45:32.910Z,3.50
2017-12-30T03:48:00.351Z,15.83
2017-12-30T03:50:27.802Z,398.77
2017-12-30T03:52:55.246Z,456.20
2017-12-30T03:55:23.464Z,565.40
2017-12-30T03:57:50.907Z,608.57
2017-12-30T04:00:18.380Z,543.40
2017-12-30T04:02:45.832Z,550.60
2017-12-30T04:05:13.288Z,561.43
2017-12-30T04:07:40.744Z,593.53
2017-12-30T04:10:08.202Z,583.67
2017-12-30T04:12:35.642Z,634.07
2017-12-30T04:15:03.122Z,678.33
2017-12-30T04:17:30.556Z,621.23
2017-12-30T04:19:58.006Z,600.90
2017-12-30T04:22:25.437Z,253.47
2017-12-30T04:24:53.658Z,240.97
2017-12-30T04:27:21.103Z,232.83
2017-12-30T04:29:48.558Z,445.53
2017-12-30T04:32:15.999Z,515.93
2017-12-30T04:34:44.222Z,555.00
2017-12-30T04:37:11.662Z,535.23
2017-12-30T04:39:39.125Z,609.30
2017-12-30T04:42:06.573Z,404.80
2017-12-30T04:44:34.030Z,415.37
2017-12-30T04:47:01.494Z,438.23
2017-12-30T04:49:28.958Z,414.97
2017-12-30T04:51:56.402Z,454.63
2017-12-30T04:54:23.854Z,440.80
2017-12-30T04:56:51.296Z,442.50
2017-12-30T04:59:18.750Z,331.50
2017-12-30T05:01:46.191Z,418.57
2017-12-30T05:04:14.406Z,456.00
2017-12-30T05:06:41.855Z,487.10
2017-12-30T05:09:09.309Z,473.70
2017-12-30T05:11:36.758Z,480.77
2017-12-30T05:14:04.223Z,430.47
2017-12-30T05:16:31.679Z,481.33
2017-12-30T05:18:59.126Z,370.20
2017-12-30T05:21:26.581Z,420.07
2017-12-30T05:23:54.793Z,418.07
2017-12-30T05:26:22.249Z,485.67
2017-12-30T05:28:49.706Z,469.53
2017-12-30T05:31:17.154Z,432.00
2017-12-30T05:33:44.610Z,440.00
2017-12-30T05:36:12.066Z,429.77
2017-12-30T05:38:39.534Z,455.73
2017-12-30T05:41:06.992Z,481.50
2017-12-30T05:43:34.430Z,609.53
2017-12-30T05:46:01.887Z,644.43
2017-12-30T05:48:29.335Z,643.87
2017-12-30T05:50:56.785Z,352.17
2017-12-30T05:53:24.230Z,368.47
2017-12-30T05:55:51.725Z,398.53
2017-12-30T05:58:19.171Z,611.50
2017-12-30T06:00:46.629Z,646.27
2017-12-30T06:03:14.064Z,652.10
2017-12-30T06:05:41.543Z,634.67
2017-12-30T06:08:09.007Z,616.10
2017-12-30T06:10:36.465Z,605.85
2017-12-30T06:13:03.910Z,596.45
2017-12-30T06:15:31.358Z,643.42
2017-12-30T06:17:58.805Z,609.67
2017-12-30T06:20:26.261Z,599.67
2017-12-30T06:22:54.466Z,363.90
2017-12-30T06:25:21.921Z,523.73
2017-12-30T06:27:49.358Z,478.37
2017-12-30T06:30:16.826Z,629.43
2017-12-30T06:32:44.289Z,611.53
2017-12-30T06:35:11.780Z,493.03
2017-12-30T06:37:39.214Z,452.87
2017-12-30T06:40:06.680Z,450.80
2017-12-30T06:42:34.125Z,473.90
2017-12-30T06:45:01.598Z,579.90
2017-12-30T06:47:29.044Z,456.07
2017-12-30T06:49:56.495Z,553.13
2017-12-30T06:52:23.943Z,452.00
2017-12-30T06:54:51.393Z,498.57
2017-12-30T06:57:18.841Z,552.50
2017-12-30T06:59:46.321Z,546.37
2017-12-30T07:02:13.762Z,502.17
2017-12-30T07:04:41.211Z,463.60
2017-12-30T07:07:08.653Z,636.43
2017-12-30T07:09:36.880Z,629.30
2017-12-30T07:12:04.329Z,619.07
2017-12-30T07:14:31.790Z,648.13
2017-12-30T07:16:59.226Z,606.83
2017-12-30T07:19:26.673Z,553.53
2017-12-30T07:21:54.122Z,549.07
2017-12-30T07:24:22.345Z,533.80
2017-12-30T07:26:49.785Z,479.10
2017-12-30T07:29:17.244Z,653.03
2017-12-30T07:31:44.686Z,639.43
2017-12-30T07:34:12.148Z,623.43
2017-12-30T07:36:40.355Z,628.13
2017-12-30T07:39:07.818Z,632.37
2017-12-30T07:41:35.261Z,638.70
2017-12-30T07:44:02.714Z,629.87
2017-12-30T07:46:30.175Z,635.47
2017-12-30T07:48:57.623Z,633.53
2017-12-30T07:51:25.082Z,634.73
2017-12-30T07:53:52.530Z,672.57
2017-12-30T07:56:20.010Z,640.13
2017-12-30T07:58:47.466Z,656.67
2017-12-30T08:01:14.923Z,647.03
2017-12-30T08:03:42.373Z,653.13
2017-12-30T08:06:09.835Z,656.77
2017-12-30T08:08:37.270Z,639.55
2017-12-30T08:11:04.729Z,621.33
2017-12-30T08:13:32.165Z,547.13
2017-12-30T08:15:59.635Z,544.70
2017-12-30T08:18:27.078Z,482.87
2017-12-30T08:20:54.534Z,581.07
2017-12-30T08:23:22.743Z,638.67
2017-12-30T08:25:50.206Z,628.77
2017-12-30T08:28:17.670Z,598.43
2017-12-30T08:30:45.134Z,627.27
2017-12-30T08:33:12.583Z,631.40
2017-12-30T08:35:40.038Z,592.63
2017-12-30T08:38:07.498Z,605.13
2017-12-30T08:40:34.971Z,607.40
2017-12-30T08:43:02.418Z,637.33
2017-12-30T08:45:29.874Z,631.53
2017-12-30T08:47:57.355Z,640.97
2017-12-30T08:50:24.801Z,633.40
2017-12-30T08:52:52.241Z,621.27
2017-12-30T08:55:19.710Z,640.67
2017-12-30T08:57:47.167Z,641.27
2017-12-30T09:00:14.622Z,644.37
2017-12-30T09:02:42.071Z,668.23
2017-12-30T09:05:09.526Z,638.53
2017-12-30T09:07:36.978Z,642.97
2017-12-30T09:10:04.434Z,642.50
2017-12-30T09:12:31.890Z,640.33
2017-12-30T09:14:59.349Z,637.37
2017-12-30T09:17:26.802Z,651.40
2017-12-30T09:19:54.309Z,646.87
2017-12-30T09:22:21.710Z,626.35
2017-12-30T09:24:49.177Z,599.70
2017-12-30T09:27:16.631Z,600.30
2017-12-30T09:29:44.083Z,602.30
2017-12-30T09:32:11.529Z,611.13
2017-12-30T09:34:38.982Z,571.70
2017-12-30T09:37:06.430Z,539.80
2017-12-30T09:39:33.890Z,539.33
2017-12-30T09:42:01.334Z,535.67
2017-12-30T09:44:28.776Z,585.00
2017-12-30T09:46:57.001Z,596.83
2017-12-30T09:49:24.451Z,583.70
2017-12-30T09:51:51.906Z,610.23
2017-12-30T09:54:19.362Z,618.70
2017-12-30T09:56:46.827Z,647.03
2017-12-30T09:59:14.265Z,647.10
2017-12-30T10:01:41.724Z,641.83
2017-12-30T10:04:09.165Z,647.73
2017-12-30T10:06:36.630Z,637.93
2017-12-30T10:09:04.082Z,630.53
2017-12-30T10:11:31.534Z,549.57
2017-12-30T10:13:58.982Z,648.63
2017-12-30T10:16:27.206Z,639.47
2017-12-30T10:18:54.658Z,633.20
2017-12-30T10:21:22.122Z,645.13
2017-12-30T10:23:49.567Z,645.43
2017-12-30T10:26:17.021Z,641.63
2017-12-30T10:28:44.473Z,631.17
2017-12-30T10:31:11.948Z,647.87
2017-12-30T10:33:39.398Z,651.90
2017-12-30T10:36:06.867Z,620.47
2017-12-30T10:38:34.322Z,617.10
2017-12-30T10:41:01.797Z,606.80
2017-12-30T10:43:29.246Z,650.80
2017-12-30T10:45:56.698Z,654.07
2017-12-30T10:48:24.145Z,655.70
2017-12-30T10:50:51.610Z,627.23
2017-12-30T10:53:19.049Z,628.03
2017-12-30T10:55:46.498Z,639.90
2017-12-30T10:58:13.954Z,642.97
2017-12-30T11:00:46.979Z,648.07
2017-12-30T11:03:14.438Z,642.67
2017-12-30T11:05:41.893Z,647.73
2017-12-30T11:08:09.339Z,647.17
2017-12-30T11:10:37.567Z,643.17
2017-12-30T11:13:05.014Z,647.47
2017-12-30T11:15:33.247Z,648.07
2017-12-30T11:18:00.698Z,633.93
2017-12-30T11:20:28.150Z,612.10
2017-12-30T11:22:55.598Z,603.77
2017-12-30T11:25:23.054Z,588.77
2017-12-30T11:27:50.504Z,585.77
2017-12-30T11:30:17.953Z,604.30
2017-12-30T11:32:45.399Z,638.93
2017-12-30T11:35:12.846Z,635.23
2017-12-30T11:37:41.053Z,617.53
2017-12-30T11:40:08.515Z,643.37
2017-12-30T11:42:35.965Z,646.40
2017-12-30T11:45:03.405Z,637.63
2017-12-30T11:47:30.850Z,647.80
2017-12-30T11:49:59.085Z,636.73
2017-12-30T11:52:27.386Z,633.60
2017-12-30T11:54:55.600Z,632.33
2017-12-30T11:57:23.082Z,626.30
2017-12-30T11:59:50.497Z,632.77
2017-12-30T12:02:17.946Z,640.80
2017-12-30T12:04:46.155Z,662.37
2017-12-30T12:07:13.602Z,660.57
2017-12-30T12:09:41.049Z,656.33
2017-12-30T12:12:08.500Z,652.80
2017-12-30T12:14:35.946Z,654.67
2017-12-30T12:17:04.410Z,655.50
2017-12-30T12:19:31.858Z,659.97
2017-12-30T12:22:00.118Z,668.53
2017-12-30T12:24:27.958Z,658.07
2017-12-30T12:26:55.425Z,658.13
2017-12-30T12:29:23.001Z,656.57
2017-12-30T12:31:50.769Z,658.80
2017-12-30T12:34:18.215Z,659.17
2017-12-30T12:36:45.744Z,656.70
2017-12-30T12:39:13.171Z,627.50
2017-12-30T12:41:40.632Z,629.53
2017-12-30T12:44:08.233Z,623.97
2017-12-30T12:46:35.726Z,630.93
2017-12-30T12:49:03.177Z,582.90
2017-12-30T12:51:30.651Z,553.77
2017-12-30T12:53:58.094Z,576.80
2017-12-30T12:56:25.547Z,600.13
2017-12-30T12:58:52.994Z,584.83
2017-12-30T13:01:20.450Z,650.77
2017-12-30T13:03:47.902Z,622.50
2017-12-30T13:06:15.369Z,615.87
2017-12-30T13:08:42.825Z,618.53
2017-12-30T13:11:10.278Z,595.40
2017-12-30T13:13:37.730Z,588.80
2017-12-30T13:16:05.194Z,616.40
2017-12-30T13:18:32.642Z,696.47
2017-12-30T13:21:00.099Z,689.83
2017-12-30T13:23:27.546Z,704.93
2017-12-30T13:25:54.990Z,685.57
2017-12-30T13:28:22.454Z,697.87
2017-12-30T13:30:49.890Z,625.73
2017-12-30T13:33:17.346Z,702.93
2017-12-30T13:35:45.549Z,703.47
2017-12-30T13:38:13.021Z,711.50
2017-12-30T13:40:40.456Z,717.10
2017-12-30T13:43:07.918Z,719.20
2017-12-30T13:45:35.375Z,679.67
2017-12-30T13:48:02.832Z,152.70
2017-12-30T13:50:30.265Z,178.30
2017-12-30T13:52:57.726Z,10.63
2017-12-30T13:55:25.165Z,8.70
2017-12-30T13:57:53.384Z,23.30
2017-12-30T14:00:20.827Z,15.80
2017-12-30T14:02:48.283Z,18.90
2017-12-30T14:05:15.749Z,2.30
2017-12-30T14:07:43.196Z,13.50
2017-12-30T14:10:11.398Z,14.87
2017-12-30T14:12:38.835Z,20.10
2017-12-30T14:15:06.294Z,9.03
2017-12-30T14:17:33.732Z,8.17
2017-12-30T14:20:01.158Z,11.87
2017-12-30T14:22:29.377Z,28.27
2017-12-30T14:24:56.814Z,20.60
2017-12-30T14:27:24.249Z,23.23
2017-12-30T14:29:52.461Z,19.70
2017-12-30T14:32:19.919Z,28.83
2017-12-30T14:34:47.354Z,14.13
2017-12-30T14:37:15.566Z,14.67
2017-12-30T14:39:42.997Z,27.47
2017-12-30T14:42:10.454Z,20.77
2017-12-30T14:44:37.878Z,3.27
2017-12-30T14:47:06.085Z,65.53
2017-12-30T14:49:33.522Z,10.23
2017-12-30T14:52:02.514Z,12.50
2017-12-30T14:54:30.709Z,16.30
2017-12-30T14:56:58.157Z,19.83
2017-12-30T14:59:25.608Z,20.13
2017-12-30T15:01:53.818Z,9.50
2017-12-30T15:04:21.253Z,11.47
2017-12-30T15:06:48.701Z,10.03
2017-12-30T15:09:16.141Z,15.13
2017-12-30T15:11:44.369Z,24.33
2017-12-30T15:14:11.812Z,6.30
2017-12-30T15:16:39.276Z,18.00
2017-12-30T15:19:06.723Z,533.60
2017-12-30T15:21:34.175Z,228.57
2017-12-30T15:24:01.636Z,531.23
2017-12-30T15:26:29.090Z,424.63
2017-12-30T15:28:56.571Z,390.47
2017-12-30T15:31:24.007Z,304.23
2017-12-30T15:33:51.478Z,213.20
2017-12-30T15:36:18.922Z,238.57
2017-12-30T15:38:46.383Z,262.20
2017-12-30T15:41:13.830Z,285.60
2017-12-30T15:43:41.286Z,459.40
2017-12-30T15:46:08.738Z,230.07
2017-12-30T15:48:36.189Z,212.27
2017-12-30T15:51:03.638Z,225.27
2017-12-30T15:53:31.853Z,216.87
2017-12-30T15:55:59.306Z,232.33
2017-12-30T15:58:26.766Z,197.60
2017-12-30T16:00:54.221Z,156.10
2017-12-30T16:03:21.704Z,148.53
2017-12-30T16:05:49.127Z,158.90
2017-12-30T16:08:16.590Z,120.80
2017-12-30T16:10:44.042Z,206.73
2017-12-30T16:13:11.505Z,105.47
2017-12-30T16:15:38.941Z,93.87
2017-12-30T16:18:06.423Z,444.47
2017-12-30T16:20:33.881Z,291.77
2017-12-30T16:23:01.342Z,223.83
2017-12-30T16:25:28.797Z,180.60
2017-12-30T16:27:56.245Z,94.80
2017-12-30T16:30:23.690Z,277.37
2017-12-30T16:32:51.157Z,452.43
2017-12-30T16:35:18.606Z,196.63
2017-12-30T16:37:46.064Z,224.70
2017-12-30T16:40:13.505Z,260.80
2017-12-30T16:42:40.971Z,268.70
2017-12-30T16:45:08.413Z,156.97
2017-12-30T16:47:35.884Z,724.00
2017-12-30T16:50:03.327Z,118.37
2017-12-30T16:52:31.542Z,10.43
2017-12-30T16:54:58.990Z,14.63
2017-12-30T16:57:27.112Z,22.67
2017-12-30T16:59:55.325Z,649.93
2017-12-30T17:02:22.774Z,15.57
2017-12-30T17:04:50.250Z,24.37
2017-12-30T17:07:17.703Z,10.00
2017-12-30T17:09:45.166Z,26.10
2017-12-30T17:12:12.605Z,18.90
2017-12-30T17:14:40.050Z,13.90
2017-12-30T17:17:08.250Z,24.03
2017-12-30T17:19:35.697Z,9.47
2017-12-30T17:22:03.143Z,23.20
2017-12-30T17:24:31.356Z,28.53
2017-12-30T17:26:58.790Z,7.53
2017-12-30T17:29:26.251Z,15.10
2017-12-30T17:31:53.697Z,7.03
2017-12-30T17:34:21.165Z,25.00
2017-12-30T17:36:48.600Z,25.17
2017-12-30T17:39:16.041Z,9.83
2017-12-30T17:41:44.238Z,5.07
2017-12-30T17:44:11.684Z,18.63
2017-12-30T17:46:39.882Z,13.43
2017-12-30T17:49:07.321Z,16.27
2017-12-30T17:51:34.764Z,11.60
2017-12-30T17:54:02.995Z,12.93
2017-12-30T17:56:30.456Z,21.37
2017-12-30T17:58:57.905Z,28.07
2017-12-30T18:01:25.346Z,11.77
2017-12-30T18:03:52.814Z,26.73
2017-12-30T18:06:20.262Z,33.47
2017-12-30T18:08:47.723Z,27.70
2017-12-30T18:11:15.161Z,30.40
2017-12-30T18:13:42.604Z,32.83
2017-12-30T18:16:10.055Z,451.90
2017-12-30T18:18:38.266Z,15.43
2017-12-30T18:21:05.700Z,26.03
2017-12-30T18:23:33.159Z,5.83
2017-12-30T18:26:01.390Z,41.27
2017-12-30T18:28:28.809Z,58.40
2017-12-30T18:30:56.255Z,50.97
2017-12-30T18:33:23.702Z,54.13
2017-12-30T18:35:51.134Z,80.70
2017-12-30T18:38:19.354Z,93.37
2017-12-30T18:40:46.799Z,58.80
2017-12-30T18:43:14.256Z,93.33
2017-12-30T18:45:41.693Z,89.53
2017-12-30T18:48:09.905Z,67.47
2017-12-30T18:50:37.348Z,83.67
2017-12-30T18:53:04.814Z,81.10
2017-12-30T18:55:32.257Z,91.17
2017-12-30T18:57:59.718Z,124.90
2017-12-30T19:00:27.150Z,70.13
2017-12-30T19:02:55.378Z,74.50
2017-12-30T19:05:22.831Z,86.10
2017-12-30T19:07:50.281Z,91.33
2017-12-30T19:10:17.746Z,109.13
2017-12-30T19:12:45.225Z,69.90
2017-12-30T19:15:12.637Z,68.60
2017-12-30T19:17:40.085Z,62.37
2017-12-30T19:20:07.545Z,83.87
2017-12-30T19:22:35.008Z,72.20
2017-12-30T19:25:02.465Z,62.37
2017-12-30T19:27:29.914Z,54.63
2017-12-30T19:29:57.367Z,55.90
2017-12-30T19:32:24.801Z,70.27
2017-12-30T19:34:53.017Z,54.63
2017-12-30T19:37:20.458Z,70.80
2017-12-30T19:39:47.930Z,227.37
2017-12-30T19:42:15.382Z,216.27
2017-12-30T19:44:42.845Z,66.10
2017-12-30T19:47:10.302Z,33.33
2017-12-30T19:49:37.756Z,53.93
2017-12-30T19:52:05.205Z,47.50
2017-12-30T19:54:32.650Z,69.37
2017-12-30T19:57:00.095Z,54.13
2017-12-30T19:59:28.330Z,118.33
2017-12-30T20:01:55.831Z,43.43
2017-12-30T20:04:23.218Z,31.57
2017-12-30T20:06:50.661Z,23.07
2017-12-30T20:09:18.118Z,39.60
2017-12-30T20:11:45.554Z,38.13
2017-12-30T20:14:13.786Z,31.00
2017-12-30T20:16:41.229Z,36.47
2017-12-30T20:19:08.678Z,45.53
2017-12-30T20:21:36.122Z,47.33
2017-12-30T20:24:03.561Z,43.53
2017-12-30T20:26:31.776Z,30.60
2017-12-30T20:28:59.221Z,55.60
2017-12-30T20:31:26.661Z,67.47
2017-12-30T20:33:54.118Z,97.13
2017-12-30T20:36:21.569Z,67.00
2017-12-30T20:38:49.006Z,58.93
2017-12-30T20:41:17.216Z,54.23
2017-12-30T20:43:44.698Z,55.07
2017-12-30T20:46:12.141Z,41.97
2017-12-30T20:48:39.614Z,50.47
2017-12-30T20:51:07.822Z,37.23
2017-12-30T20:53:36.036Z,50.97
2017-12-30T20:56:03.482Z,56.77
2017-12-30T20:58:30.923Z,118.33
2017-12-30T21:00:59.142Z,72.50
2017-12-30T21:03:26.582Z,58.83
2017-12-30T21:05:54.049Z,63.33
2017-12-30T21:08:21.495Z,81.80
2017-12-30T21:10:48.957Z,72.00
2017-12-30T21:13:16.422Z,75.30
2017-12-30T21:15:43.880Z,62.63
2017-12-30T21:18:11.330Z,72.37
2017-12-30T21:20:38.782Z,77.27
2017-12-30T21:23:06.217Z,59.37
2017-12-30T21:25:34.431Z,85.67
2017-12-30T21:28:01.875Z,87.40
2017-12-30T21:30:29.331Z,46.17
2017-12-30T21:32:56.778Z,73.30
2017-12-30T21:35:24.234Z,65.37
2017-12-30T21:37:51.694Z,58.77
2017-12-30T21:40:19.141Z,41.13
2017-12-30T21:42:46.584Z,38.63
2017-12-30T21:45:14.793Z,31.27
2017-12-30T21:47:42.242Z,36.23
2017-12-30T21:50:09.685Z,27.03
2017-12-30T21:52:37.138Z,35.97
2017-12-30T21:55:05.364Z,50.17
2017-12-30T21:57:32.806Z,65.13
2017-12-30T22:00:00.259Z,350.63
2017-12-30T22:02:27.702Z,349.80
2017-12-30T22:04:55.178Z,393.97
2017-12-30T22:07:22.627Z,357.83
2017-12-30T22:09:50.087Z,265.97
2017-12-30T22:12:17.538Z,376.30
2017-12-30T22:14:45.009Z,331.87
2017-12-30T22:17:12.468Z,325.97
2017-12-30T22:19:39.930Z,326.63
2017-12-30T22:22:07.378Z,382.33
2017-12-30T22:24:34.840Z,327.23
2017-12-30T22:27:02.291Z,273.10
2017-12-30T22:29:29.751Z,290.93
2017-12-30T22:31:57.203Z,282.97
2017-12-30T22:34:24.664Z,319.83
2017-12-30T22:36:52.104Z,326.90
2017-12-30T22:39:19.558Z,331.70
2017-12-30T22:41:47.006Z,320.93
2017-12-30T22:44:14.483Z,305.93
2017-12-30T22:46:41.946Z,320.07
2017-12-30T22:49:09.399Z,274.87
2017-12-30T22:51:36.852Z,254.90
2017-12-30T22:54:04.310Z,286.10
2017-12-30T22:56:31.753Z,259.60
2017-12-30T22:58:59.222Z,249.60
2017-12-30T23:01:26.680Z,228.77
2017-12-30T23:03:54.154Z,260.03
2017-12-30T23:06:21.620Z,239.13
2017-12-30T23:08:49.069Z,232.37
2017-12-30T23:11:16.530Z,207.47
2017-12-30T23:13:43.978Z,238.17
2017-12-30T23:16:11.436Z,241.60
2017-12-30T23:18:38.902Z,320.97
2017-12-30T23:21:06.367Z,221.90
2017-12-30T23:23:33.801Z,220.60
2017-12-30T23:26:01.266Z,196.60
2017-12-30T23:28:28.717Z,208.57
2017-12-30T23:30:56.170Z,197.87
2017-12-30T23:33:24.373Z,190.63
2017-12-30T23:35:51.831Z,184.33
2017-12-30T23:38:19.269Z,143.90
2017-12-30T23:40:46.771Z,144.73
2017-12-30T23:43:14.181Z,179.10
2017-12-30T23:45:41.630Z,179.67
2017-12-30T23:48:09.095Z,171.10
2017-12-30T23:50:36.539Z,199.57
2017-12-30T23:53:03.986Z,190.73
2017-12-30T23:55:31.443Z,181.77
2017-12-30T23:57:58.886Z,230.33
